This is the latest recevied weather packets stored in our database for station/object OE-11099. If no packets are shown the sender has not sent any weather packets the latest 10 day(s).
| Time | Temp. | Humidity | Pressure | Rain* | Wind** | Luminosity | Snow |
|---|---|---|---|---|---|---|---|
| 1787944279 | 16.11° C | 91% | 1017.3 hPa | 0.76 mm | - | 0 W/m² | - |
| 1787943906 | 16.67° C | 92% | 1017 hPa | 0.76 mm | - | 0 W/m² | - |
| 1787943305 | 16.67° C | 89% | 1017 hPa | 0.76 mm | - | 0 W/m² | - |
| 1787942479 | 16.67° C | 87% | 1016.7 hPa | 0.51 mm | - | 0 W/m² | - |
| 1787941504 | 16.67° C | 88% | 1016.6 hPa | 0 mm | - | 0 W/m² | - |
| 1787940679 | 17.22° C | 90% | 1016.4 hPa | 0 mm | - | 0 W/m² | - |
| 1787940305 | 17.22° C | 89% | 1016.2 hPa | 0 mm | - | 0 W/m² | - |
| 1787939705 | 17.22° C | 89% | 1016.2 hPa | 1.02 mm | - | 7 W/m² | - |
| 1787938879 | 17.22° C | 89% | 1016.2 hPa | 1.52 mm | - | 13 W/m² | - |
| 1787938506 | 17.22° C | 88% | 1016.2 hPa | 1.52 mm | - | 27 W/m² | - |
| 1787937906 | 17.22° C | 88% | 1015.9 hPa | 1.52 mm | - | 27 W/m² | - |
| 1787937079 | 17.78° C | 87% | 1015.6 hPa | 1.52 mm | - | 20 W/m² | - |
| 1787936705 | 17.78° C | 85% | 1015.4 hPa | 1.52 mm | - | 13 W/m² | - |
| 1787936105 | 18.33° C | 85% | 1015.1 hPa | 1.52 mm | - | 20 W/m² | - |
| 1787935279 | 19.44° C | 77% | 1015 hPa | 0.51 mm | - | 13 W/m² | - |
| 1787934906 | 20° C | 71% | 1014.7 hPa | 0 mm | - | 7 W/m² | - |
| 1787934306 | 20.56° C | 68% | 1014.3 hPa | 0 mm | - | 20 W/m² | - |
| 1787933479 | 20.56° C | 70% | 1013.7 hPa | 0 mm | - | 33 W/m² | - |
| 1787933106 | 21.11° C | 69% | 1013.4 hPa | 0 mm | - | 80 W/m² | - |
| 1787932506 | 21.11° C | 67% | 1013.3 hPa | 0 mm | - | 213 W/m² | - |
| 1787931679 | 21.11° C | 70% | 1013.5 hPa | 0 mm | - | 126 W/m² | - |
| 1787931306 | 21.11° C | 70% | 1013.2 hPa | 0 mm | - | 113 W/m² | - |
| 1787930706 | 21.11° C | 70% | 1013.3 hPa | 0 mm | - | 153 W/m² | - |
| 1787929879 | 21.11° C | 69% | 1013.3 hPa | 0 mm | - | 146 W/m² | - |
| 1787929505 | 22.78° C | 66% | 1012.7 hPa | 0 mm | - | 319 W/m² | - |
* Rain latest hour (hover to see other rain measurements)
** Current wind speed in m/s (hover to see current wind gust speed)